sensor_id;sensor_type;location;lat;lon;timestamp;pressure;altitude;pressure_sealevel;temperature;humidity
12973;BME280;6551;51.056;9.466;2023-12-14T00:01:29;96522.16;;;8.80;87.87
12973;BME280;6551;51.056;9.466;2023-12-14T00:03:54;96524.00;;;8.79;87.80
12973;BME280;6551;51.056;9.466;2023-12-14T00:06:20;96518.91;;;8.78;88.41
12973;BME280;6551;51.056;9.466;2023-12-14T00:08:46;96523.63;;;8.88;88.74
12973;BME280;6551;51.056;9.466;2023-12-14T00:11:12;96528.94;;;8.88;88.26
12973;BME280;6551;51.056;9.466;2023-12-14T00:13:38;96530.88;;;8.92;88.25
12973;BME280;6551;51.056;9.466;2023-12-14T00:16:05;96539.28;;;9.01;88.39
12973;BME280;6551;51.056;9.466;2023-12-14T00:18:31;96534.53;;;9.03;88.23
12973;BME280;6551;51.056;9.466;2023-12-14T00:20:57;96534.53;;;9.03;88.10
12973;BME280;6551;51.056;9.466;2023-12-14T00:23:23;96546.28;;;9.07;88.42
12973;BME280;6551;51.056;9.466;2023-12-14T00:25:49;96551.94;;;9.10;87.93
12973;BME280;6551;51.056;9.466;2023-12-14T00:28:15;96548.56;;;9.15;87.36
12973;BME280;6551;51.056;9.466;2023-12-14T00:30:40;96548.56;;;9.15;87.88
12973;BME280;6551;51.056;9.466;2023-12-14T00:33:06;96553.75;;;9.21;87.59
12973;BME280;6551;51.056;9.466;2023-12-14T00:35:33;96553.75;;;9.21;87.61
12973;BME280;6551;51.056;9.466;2023-12-14T00:38:01;96556.63;;;9.20;87.63
12973;BME280;6551;51.056;9.466;2023-12-14T00:40:26;96564.25;;;9.16;87.23
12973;BME280;6551;51.056;9.466;2023-12-14T00:42:53;96563.19;;;9.29;87.35
12973;BME280;6551;51.056;9.466;2023-12-14T00:45:19;96570.13;;;9.30;87.00
12973;BME280;6551;51.056;9.466;2023-12-14T00:47:44;96571.38;;;9.27;86.74
12973;BME280;6551;51.056;9.466;2023-12-14T00:50:10;96572.44;;;9.26;86.68
12973;BME280;6551;51.056;9.466;2023-12-14T00:52:36;96580.41;;;9.26;86.88
12973;BME280;6551;51.056;9.466;2023-12-14T00:55:02;96585.75;;;9.15;86.95
12973;BME280;6551;51.056;9.466;2023-12-14T00:57:28;96584.50;;;9.06;86.88
12973;BME280;6551;51.056;9.466;2023-12-14T00:59:53;96593.97;;;9.13;86.85
12973;BME280;6551;51.056;9.466;2023-12-14T01:02:19;96594.88;;;9.19;87.00
12973;BME280;6551;51.056;9.466;2023-12-14T01:04:45;96601.88;;;9.25;87.22
12973;BME280;6551;51.056;9.466;2023-12-14T01:07:11;96597.94;;;9.27;87.07
12973;BME280;6551;51.056;9.466;2023-12-14T01:09:36;96601.41;;;9.28;87.09
12973;BME280;6551;51.056;9.466;2023-12-14T01:12:02;96612.13;;;9.33;86.92
12973;BME280;6551;51.056;9.466;2023-12-14T01:14:29;96613.03;;;9.38;86.82
12973;BME280;6551;51.056;9.466;2023-12-14T01:16:56;96630.28;;;9.53;87.03
12973;BME280;6551;51.056;9.466;2023-12-14T01:19:22;96624.75;;;9.54;86.72
12973;BME280;6551;51.056;9.466;2023-12-14T01:21:47;96630.78;;;9.50;86.15
12973;BME280;6551;51.056;9.466;2023-12-14T01:24:13;96638.53;;;9.51;86.06
12973;BME280;6551;51.056;9.466;2023-12-14T01:26:40;96640.75;;;9.43;85.86
12973;BME280;6551;51.056;9.466;2023-12-14T01:29:05;96641.69;;;9.36;85.77
12973;BME280;6551;51.056;9.466;2023-12-14T01:31:31;96648.25;;;9.46;85.68
12973;BME280;6551;51.056;9.466;2023-12-14T01:33:57;96643.03;;;9.51;85.78
12973;BME280;6551;51.056;9.466;2023-12-14T01:36:24;96651.72;;;9.46;85.28
12973;BME280;6551;51.056;9.466;2023-12-14T01:38:52;96651.13;;;9.44;85.38
12973;BME280;6551;51.056;9.466;2023-12-14T01:41:18;96657.50;;;9.43;85.79
12973;BME280;6551;51.056;9.466;2023-12-14T01:43:45;96655.06;;;9.41;85.54
12973;BME280;6551;51.056;9.466;2023-12-14T01:46:11;96664.31;;;9.39;85.60
12973;BME280;6551;51.056;9.466;2023-12-14T01:48:36;96665.94;;;9.40;85.50
12973;BME280;6551;51.056;9.466;2023-12-14T01:51:03;96666.41;;;9.37;85.60
12973;BME280;6551;51.056;9.466;2023-12-14T01:53:29;96671.84;;;9.30;85.68
12973;BME280;6551;51.056;9.466;2023-12-14T01:55:56;96669.19;;;9.30;86.00
12973;BME280;6551;51.056;9.466;2023-12-14T01:58:22;96676.69;;;9.22;85.91
12973;BME280;6551;51.056;9.466;2023-12-14T02:04:01;96686.09;;;9.13;86.33
12973;BME280;6551;51.056;9.466;2023-12-14T02:06:27;96697.91;;;8.94;86.42
12973;BME280;6551;51.056;9.466;2023-12-14T02:08:53;96690.16;;;8.92;86.63
12973;BME280;6551;51.056;9.466;2023-12-14T02:11:20;96702.13;;;9.06;86.58
12973;BME280;6551;51.056;9.466;2023-12-14T02:13:47;96703.53;;;9.09;86.44
12973;BME280;6551;51.056;9.466;2023-12-14T02:16:12;96696.16;;;8.99;86.86
12973;BME280;6551;51.056;9.466;2023-12-14T02:18:38;96699.13;;;9.03;86.42
12973;BME280;6551;51.056;9.466;2023-12-14T02:21:04;96701.94;;;8.85;87.41
12973;BME280;6551;51.056;9.466;2023-12-14T02:23:31;96705.84;;;8.94;87.54
12973;BME280;6551;51.056;9.466;2023-12-14T02:25:58;96703.31;;;8.99;87.54
12973;BME280;6551;51.056;9.466;2023-12-14T02:28:25;96700.75;;;9.04;87.68
12973;BME280;6551;51.056;9.466;2023-12-14T02:30:50;96714.13;;;9.09;87.58
12973;BME280;6551;51.056;9.466;2023-12-14T02:33:16;96712.41;;;9.14;87.60
12973;BME280;6551;51.056;9.466;2023-12-14T02:35:43;96702.47;;;9.21;87.09
12973;BME280;6551;51.056;9.466;2023-12-14T02:38:10;96710.44;;;9.21;86.67
12973;BME280;6551;51.056;9.466;2023-12-14T02:40:35;96706.63;;;9.17;86.88
12973;BME280;6551;51.056;9.466;2023-12-14T02:43:01;96707.09;;;9.14;86.44
12973;BME280;6551;51.056;9.466;2023-12-14T02:45:28;96715.97;;;9.20;86.42
12973;BME280;6551;51.056;9.466;2023-12-14T02:47:54;96715.88;;;9.15;86.33
12973;BME280;6551;51.056;9.466;2023-12-14T02:50:19;96720.94;;;9.16;86.36
12973;BME280;6551;51.056;9.466;2023-12-14T02:52:47;96723.38;;;9.18;86.38
12973;BME280;6551;51.056;9.466;2023-12-14T02:55:13;96723.47;;;9.11;86.27
12973;BME280;6551;51.056;9.466;2023-12-14T02:57:39;96740.47;;;9.10;86.62
12973;BME280;6551;51.056;9.466;2023-12-14T03:00:06;96739.09;;;9.08;86.66
12973;BME280;6551;51.056;9.466;2023-12-14T03:02:31;96741.88;;;9.13;86.54
12973;BME280;6551;51.056;9.466;2023-12-14T03:04:59;96734.56;;;9.20;86.44
12973;BME280;6551;51.056;9.466;2023-12-14T03:07:24;96735.13;;;9.22;86.11
12973;BME280;6551;51.056;9.466;2023-12-14T03:09:50;96746.22;;;9.30;86.18
12973;BME280;6551;51.056;9.466;2023-12-14T03:12:16;96748.31;;;9.28;85.82
12973;BME280;6551;51.056;9.466;2023-12-14T03:14:41;96748.66;;;9.20;85.79
12973;BME280;6551;51.056;9.466;2023-12-14T03:17:08;96759.75;;;9.29;85.37
12973;BME280;6551;51.056;9.466;2023-12-14T03:19:39;96754.31;;;9.35;85.67
12973;BME280;6551;51.056;9.466;2023-12-14T03:22:06;96763.22;;;9.41;85.49
12973;BME280;6551;51.056;9.466;2023-12-14T03:24:32;96761.22;;;9.36;85.11
12973;BME280;6551;51.056;9.466;2023-12-14T03:26:59;96768.97;;;9.38;85.07
12973;BME280;6551;51.056;9.466;2023-12-14T03:29:27;96773.47;;;9.37;84.99
12973;BME280;6551;51.056;9.466;2023-12-14T03:31:56;96765.16;;;9.34;85.15
12973;BME280;6551;51.056;9.466;2023-12-14T03:34:22;96768.38;;;9.36;84.92
12973;BME280;6551;51.056;9.466;2023-12-14T03:36:49;96781.00;;;9.40;85.17
12973;BME280;6551;51.056;9.466;2023-12-14T03:39:15;96785.94;;;9.37;84.95
12973;BME280;6551;51.056;9.466;2023-12-14T03:41:44;96787.22;;;9.34;84.91
12973;BME280;6551;51.056;9.466;2023-12-14T03:44:10;96790.69;;;9.35;85.03
12973;BME280;6551;51.056;9.466;2023-12-14T03:46:39;96795.19;;;9.46;85.14
12973;BME280;6551;51.056;9.466;2023-12-14T03:49:05;96788.59;;;9.37;84.93
12973;BME280;6551;51.056;9.466;2023-12-14T03:51:31;96792.88;;;9.38;85.02
12973;BME280;6551;51.056;9.466;2023-12-14T03:53:57;96800.63;;;9.39;85.06
12973;BME280;6551;51.056;9.466;2023-12-14T03:56:23;96803.88;;;9.30;85.02
12973;BME280;6551;51.056;9.466;2023-12-14T03:58:49;96809.41;;;9.28;85.17
12973;BME280;6551;51.056;9.466;2023-12-14T04:01:19;96806.28;;;9.20;85.27
12973;BME280;6551;51.056;9.466;2023-12-14T04:03:46;96805.81;;;9.11;85.66
12973;BME280;6551;51.056;9.466;2023-12-14T04:06:13;96815.75;;;9.04;85.80
12973;BME280;6551;51.056;9.466;2023-12-14T04:08:39;96815.38;;;9.01;86.02
12973;BME280;6551;51.056;9.466;2023-12-14T04:11:05;96816.78;;;9.03;85.83
12973;BME280;6551;51.056;9.466;2023-12-14T04:13:33;96824.06;;;9.08;86.15
12973;BME280;6551;51.056;9.466;2023-12-14T04:16:00;96826.25;;;8.99;86.24
12973;BME280;6551;51.056;9.466;2023-12-14T04:18:26;96829.34;;;8.96;86.76
12973;BME280;6551;51.056;9.466;2023-12-14T04:20:52;96839.28;;;9.01;86.68
12973;BME280;6551;51.056;9.466;2023-12-14T04:23:18;96840.91;;;9.02;86.48
12973;BME280;6551;51.056;9.466;2023-12-14T04:25:44;96848.63;;;9.03;86.33
12973;BME280;6551;51.056;9.466;2023-12-14T04:28:10;96855.22;;;9.01;86.49
12973;BME280;6551;51.056;9.466;2023-12-14T04:30:36;96847.69;;;8.98;86.36
12973;BME280;6551;51.056;9.466;2023-12-14T04:33:01;96863.28;;;9.06;86.55
12973;BME280;6551;51.056;9.466;2023-12-14T04:35:27;96868.72;;;8.99;86.80
12973;BME280;6551;51.056;9.466;2023-12-14T04:37:54;96868.16;;;9.09;86.40
12973;BME280;6551;51.056;9.466;2023-12-14T04:40:20;96875.56;;;9.18;86.31
12973;BME280;6551;51.056;9.466;2023-12-14T04:42:47;96874.53;;;9.31;86.47
12973;BME280;6551;51.056;9.466;2023-12-14T04:45:12;96878.38;;;9.35;86.13
12973;BME280;6551;51.056;9.466;2023-12-14T04:47:38;96877.78;;;9.45;85.99
12973;BME280;6551;51.056;9.466;2023-12-14T04:50:06;96882.53;;;9.54;85.68
12973;BME280;6551;51.056;9.466;2023-12-14T04:52:32;96879.88;;;9.54;84.85
12973;BME280;6551;51.056;9.466;2023-12-14T04:54:58;96885.19;;;9.54;84.40
12973;BME280;6551;51.056;9.466;2023-12-14T04:57:24;96890.59;;;9.59;84.62
12973;BME280;6551;51.056;9.466;2023-12-14T04:59:50;96892.00;;;9.62;84.15
12973;BME280;6551;51.056;9.466;2023-12-14T05:02:15;96895.47;;;9.62;83.64
12973;BME280;6551;51.056;9.466;2023-12-14T05:04:41;96904.59;;;9.55;83.45
12973;BME280;6551;51.056;9.466;2023-12-14T05:07:07;96912.31;;;9.45;83.52
12973;BME280;6551;51.056;9.466;2023-12-14T05:09:32;96914.88;;;9.51;83.33
12973;BME280;6551;51.056;9.466;2023-12-14T05:11:59;96914.06;;;9.62;83.85
12973;BME280;6551;51.056;9.466;2023-12-14T05:14:26;96920.53;;;9.66;83.57
12973;BME280;6551;51.056;9.466;2023-12-14T05:16:54;96933.59;;;9.68;83.56
12973;BME280;6551;51.056;9.466;2023-12-14T05:19:20;96939.38;;;9.76;83.84
12973;BME280;6551;51.056;9.466;2023-12-14T05:21:46;96940.78;;;9.79;83.63
12973;BME280;6551;51.056;9.466;2023-12-14T05:24:11;96946.66;;;9.81;83.83
12973;BME280;6551;51.056;9.466;2023-12-14T05:26:37;96956.25;;;9.82;83.45
12973;BME280;6551;51.056;9.466;2023-12-14T05:29:04;96949.78;;;9.78;83.20
12973;BME280;6551;51.056;9.466;2023-12-14T05:31:30;96960.41;;;9.78;82.49
12973;BME280;6551;51.056;9.466;2023-12-14T05:33:56;96969.66;;;9.75;82.49
12973;BME280;6551;51.056;9.466;2023-12-14T05:36:21;96959.47;;;9.72;82.71
12973;BME280;6551;51.056;9.466;2023-12-14T05:38:47;96959.38;;;9.67;82.71
12973;BME280;6551;51.056;9.466;2023-12-14T05:41:13;96955.41;;;9.58;82.22
12973;BME280;6551;51.056;9.466;2023-12-14T05:43:40;96968.84;;;9.52;81.94
12973;BME280;6551;51.056;9.466;2023-12-14T05:46:06;96971.22;;;9.41;82.00
12973;BME280;6551;51.056;9.466;2023-12-14T05:48:31;96979.19;;;9.30;82.29
12973;BME280;6551;51.056;9.466;2023-12-14T05:51:00;96988.41;;;9.27;82.57
12973;BME280;6551;51.056;9.466;2023-12-14T05:53:26;96992.19;;;9.20;82.70
12973;BME280;6551;51.056;9.466;2023-12-14T05:55:52;96996.69;;;9.19;82.76
12973;BME280;6551;51.056;9.466;2023-12-14T05:58:19;97004.66;;;9.19;82.62
12973;BME280;6551;51.056;9.466;2023-12-14T06:00:44;97016.41;;;9.12;83.07
12973;BME280;6551;51.056;9.466;2023-12-14T06:03:10;97020.69;;;9.13;83.01
12973;BME280;6551;51.056;9.466;2023-12-14T06:05:36;97030.38;;;9.07;83.12
12973;BME280;6551;51.056;9.466;2023-12-14T06:08:02;97033.63;;;9.09;83.45
12973;BME280;6551;51.056;9.466;2023-12-14T06:10:28;97033.38;;;9.11;83.20
12973;BME280;6551;51.056;9.466;2023-12-14T06:12:54;97050.72;;;9.13;83.06
12973;BME280;6551;51.056;9.466;2023-12-14T06:15:20;97054.63;;;9.11;82.32
12973;BME280;6551;51.056;9.466;2023-12-14T06:17:46;97052.19;;;9.09;82.46
12973;BME280;6551;51.056;9.466;2023-12-14T06:20:11;97055.81;;;9.15;82.52
12973;BME280;6551;51.056;9.466;2023-12-14T06:22:37;97065.97;;;9.18;82.13
12973;BME280;6551;51.056;9.466;2023-12-14T06:25:04;97066.28;;;9.10;81.96
12973;BME280;6551;51.056;9.466;2023-12-14T06:27:31;97068.94;;;8.92;82.37
12973;BME280;6551;51.056;9.466;2023-12-14T06:29:58;97082.91;;;8.87;82.50
12973;BME280;6551;51.056;9.466;2023-12-14T06:32:24;97094.97;;;8.83;82.31
12973;BME280;6551;51.056;9.466;2023-12-14T06:34:50;97095.88;;;8.95;82.22
12973;BME280;6551;51.056;9.466;2023-12-14T06:37:15;97096.84;;;9.01;82.28
12973;BME280;6551;51.056;9.466;2023-12-14T06:39:42;97094.56;;;9.04;82.44
12973;BME280;6551;51.056;9.466;2023-12-14T06:42:08;97096.25;;;8.99;82.18
12973;BME280;6551;51.056;9.466;2023-12-14T06:44:35;97097.50;;;8.96;81.83
12973;BME280;6551;51.056;9.466;2023-12-14T06:47:02;97095.28;;;8.93;82.13
12973;BME280;6551;51.056;9.466;2023-12-14T06:49:27;97097.50;;;8.96;82.09
12973;BME280;6551;51.056;9.466;2023-12-14T06:51:53;97105.81;;;9.00;82.14
12973;BME280;6551;51.056;9.466;2023-12-14T06:54:18;97110.34;;;8.99;81.91
12973;BME280;6551;51.056;9.466;2023-12-14T06:56:44;97115.72;;;8.93;81.86
12973;BME280;6551;51.056;9.466;2023-12-14T06:59:10;97120.94;;;8.81;81.38
12973;BME280;6551;51.056;9.466;2023-12-14T07:01:36;97119.16;;;8.75;81.63
12973;BME280;6551;51.056;9.466;2023-12-14T07:04:02;97120.66;;;8.71;81.14
12973;BME280;6551;51.056;9.466;2023-12-14T07:06:30;97124.41;;;8.63;81.56
12973;BME280;6551;51.056;9.466;2023-12-14T07:08:56;97126.31;;;8.56;81.45
12973;BME280;6551;51.056;9.466;2023-12-14T07:11:22;97137.78;;;8.50;81.39
12973;BME280;6551;51.056;9.466;2023-12-14T07:13:47;97137.94;;;8.55;81.28
12973;BME280;6551;51.056;9.466;2023-12-14T07:16:14;97145.91;;;8.55;81.36
12973;BME280;6551;51.056;9.466;2023-12-14T07:18:42;97148.56;;;8.55;81.64
12973;BME280;6551;51.056;9.466;2023-12-14T07:21:09;97154.53;;;8.51;81.56
12973;BME280;6551;51.056;9.466;2023-12-14T07:23:35;97152.09;;;8.49;81.30
12973;BME280;6551;51.056;9.466;2023-12-14T07:26:01;97159.44;;;8.47;81.12
12973;BME280;6551;51.056;9.466;2023-12-14T07:28:28;97159.25;;;8.49;80.86
12973;BME280;6551;51.056;9.466;2023-12-14T07:30:54;97168.88;;;8.43;80.67
12973;BME280;6551;51.056;9.466;2023-12-14T07:33:20;97180.09;;;8.45;80.83
12973;BME280;6551;51.056;9.466;2023-12-14T07:35:46;97189.13;;;8.38;80.69
12973;BME280;6551;51.056;9.466;2023-12-14T07:38:12;97188.59;;;8.29;80.66
12973;BME280;6551;51.056;9.466;2023-12-14T07:40:38;97193.03;;;8.35;80.31
12973;BME280;6551;51.056;9.466;2023-12-14T07:43:05;97194.72;;;8.30;80.15
12973;BME280;6551;51.056;9.466;2023-12-14T07:45:30;97198.53;;;8.34;80.37
12973;BME280;6551;51.056;9.466;2023-12-14T07:47:56;97204.00;;;8.39;80.04
12973;BME280;6551;51.056;9.466;2023-12-14T07:50:23;97212.63;;;8.34;80.24
12973;BME280;6551;51.056;9.466;2023-12-14T07:52:49;97208.31;;;8.33;79.82
12973;BME280;6551;51.056;9.466;2023-12-14T07:55:14;97213.22;;;8.36;80.20
12973;BME280;6551;51.056;9.466;2023-12-14T07:57:40;97221.34;;;8.41;79.68
12973;BME280;6551;51.056;9.466;2023-12-14T08:00:07;97223.63;;;8.38;79.93
12973;BME280;6551;51.056;9.466;2023-12-14T08:02:34;97227.09;;;8.38;80.31
12973;BME280;6551;51.056;9.466;2023-12-14T08:05:00;97224.44;;;8.38;79.88
12973;BME280;6551;51.056;9.466;2023-12-14T08:07:26;97233.38;;;8.44;79.83
12973;BME280;6551;51.056;9.466;2023-12-14T08:09:57;97243.16;;;8.43;80.28
12973;BME280;6551;51.056;9.466;2023-12-14T08:12:23;97239.72;;;8.36;79.96
12973;BME280;6551;51.056;9.466;2023-12-14T08:14:50;97243.16;;;8.43;80.11
12973;BME280;6551;51.056;9.466;2023-12-14T08:17:16;97256.69;;;8.35;80.28
12973;BME280;6551;51.056;9.466;2023-12-14T08:19:42;97253.22;;;8.35;80.27
12973;BME280;6551;51.056;9.466;2023-12-14T08:22:09;97258.69;;;8.40;80.41
12973;BME280;6551;51.056;9.466;2023-12-14T08:24:43;97262.56;;;8.44;80.10
12973;BME280;6551;51.056;9.466;2023-12-14T08:27:09;97267.84;;;8.44;80.12
12973;BME280;6551;51.056;9.466;2023-12-14T08:29:35;97271.50;;;8.49;80.51
12973;BME280;6551;51.056;9.466;2023-12-14T08:32:01;97275.31;;;8.53;80.39
12973;BME280;6551;51.056;9.466;2023-12-14T08:34:27;97290.38;;;8.59;80.33
12973;BME280;6551;51.056;9.466;2023-12-14T08:36:54;97293.59;;;8.68;80.41
12973;BME280;6551;51.056;9.466;2023-12-14T08:39:19;97300.91;;;8.72;80.43
12973;BME280;6551;51.056;9.466;2023-12-14T08:41:48;97306.44;;;8.71;79.79
12973;BME280;6551;51.056;9.466;2023-12-14T08:44:15;97300.09;;;8.72;80.12
12973;BME280;6551;51.056;9.466;2023-12-14T08:46:45;97315.78;;;8.80;79.56
12973;BME280;6551;51.056;9.466;2023-12-14T08:49:12;97321.13;;;8.73;79.22
12973;BME280;6551;51.056;9.466;2023-12-14T08:51:39;97313.75;;;8.75;79.24
12973;BME280;6551;51.056;9.466;2023-12-14T08:54:06;97325.66;;;8.66;79.33
12973;BME280;6551;51.056;9.466;2023-12-14T08:56:32;97336.47;;;8.71;79.34
12973;BME280;6551;51.056;9.466;2023-12-14T08:58:57;97339.47;;;8.75;79.61
12973;BME280;6551;51.056;9.466;2023-12-14T09:01:25;97353.16;;;8.72;79.32
12973;BME280;6551;51.056;9.466;2023-12-14T09:03:50;97352.56;;;8.70;79.11
12973;BME280;6551;51.056;9.466;2023-12-14T09:06:17;97348.50;;;8.67;79.17
12973;BME280;6551;51.056;9.466;2023-12-14T09:08:44;97360.97;;;8.67;79.60
12973;BME280;6551;51.056;9.466;2023-12-14T09:11:11;97371.59;;;8.67;79.30
12973;BME280;6551;51.056;9.466;2023-12-14T09:13:37;97369.16;;;8.65;79.38
12973;BME280;6551;51.056;9.466;2023-12-14T09:16:02;97371.81;;;8.65;79.62
12973;BME280;6551;51.056;9.466;2023-12-14T09:18:28;97374.84;;;8.69;80.11
12973;BME280;6551;51.056;9.466;2023-12-14T09:20:54;97376.69;;;8.68;79.87
12973;BME280;6551;51.056;9.466;2023-12-14T09:23:20;97379.94;;;8.70;79.82
12973;BME280;6551;51.056;9.466;2023-12-14T09:25:46;97390.00;;;8.55;79.38
12973;BME280;6551;51.056;9.466;2023-12-14T09:28:11;97394.47;;;8.61;79.34
12973;BME280;6551;51.056;9.466;2023-12-14T09:30:37;97402.25;;;8.63;79.62
12973;BME280;6551;51.056;9.466;2023-12-14T09:33:03;97414.28;;;8.59;79.18
12973;BME280;6551;51.056;9.466;2023-12-14T09:35:29;97416.19;;;8.52;79.63
12973;BME280;6551;51.056;9.466;2023-12-14T09:37:54;97417.84;;;8.46;79.71
12973;BME280;6551;51.056;9.466;2023-12-14T09:40:22;97420.91;;;8.43;79.78
12973;BME280;6551;51.056;9.466;2023-12-14T09:42:48;97424.63;;;8.36;79.69
12973;BME280;6551;51.056;9.466;2023-12-14T09:45:17;97432.13;;;8.45;79.52
12973;BME280;6551;51.056;9.466;2023-12-14T09:47:44;97425.41;;;8.36;79.31
12973;BME280;6551;51.056;9.466;2023-12-14T09:50:12;97434.00;;;8.38;79.41
12973;BME280;6551;51.056;9.466;2023-12-14T09:52:40;97439.72;;;8.35;79.61
12973;BME280;6551;51.056;9.466;2023-12-14T09:55:11;97439.91;;;8.34;79.22
12973;BME280;6551;51.056;9.466;2023-12-14T09:57:37;97450.34;;;8.29;79.01
12973;BME280;6551;51.056;9.466;2023-12-14T10:00:03;97455.84;;;8.34;79.05
12973;BME280;6551;51.056;9.466;2023-12-14T10:02:32;97464.41;;;8.36;79.19
12973;BME280;6551;51.056;9.466;2023-12-14T10:04:58;97456.25;;;8.31;79.09
12973;BME280;6551;51.056;9.466;2023-12-14T10:07:23;97463.41;;;8.23;79.16
12973;BME280;6551;51.056;9.466;2023-12-14T10:09:49;97469.28;;;8.25;78.89
12973;BME280;6551;51.056;9.466;2023-12-14T10:12:16;97486.47;;;8.30;79.09
12973;BME280;6551;51.056;9.466;2023-12-14T10:14:41;97475.00;;;8.22;78.94
12973;BME280;6551;51.056;9.466;2023-12-14T10:17:21;97479.72;;;8.34;79.03
12973;BME280;6551;51.056;9.466;2023-12-14T10:19:48;97483.81;;;8.30;79.42
12973;BME280;6551;51.056;9.466;2023-12-14T10:22:18;97483.00;;;8.29;78.72
12973;BME280;6551;51.056;9.466;2023-12-14T10:24:46;97493.56;;;8.22;79.29
12973;BME280;6551;51.056;9.466;2023-12-14T10:27:11;97509.13;;;8.19;78.64
12973;BME280;6551;51.056;9.466;2023-12-14T10:29:38;97505.03;;;8.10;78.93
12973;BME280;6551;51.056;9.466;2023-12-14T10:32:05;97509.31;;;8.11;78.97
12973;BME280;6551;51.056;9.466;2023-12-14T10:34:33;97501.97;;;8.13;79.02
12973;BME280;6551;51.056;9.466;2023-12-14T10:36:59;97511.53;;;8.20;79.07
12973;BME280;6551;51.056;9.466;2023-12-14T10:39:26;97506.47;;;8.19;78.90
12973;BME280;6551;51.056;9.466;2023-12-14T10:41:56;97507.47;;;8.18;78.91
12973;BME280;6551;51.056;9.466;2023-12-14T10:44:25;97508.47;;;8.23;78.75
12973;BME280;6551;51.056;9.466;2023-12-14T10:46:57;97510.31;;;8.23;78.82
12973;BME280;6551;51.056;9.466;2023-12-14T10:49:25;97511.16;;;8.30;79.33
12973;BME280;6551;51.056;9.466;2023-12-14T10:51:53;97507.66;;;8.36;79.00
12973;BME280;6551;51.056;9.466;2023-12-14T10:54:21;97522.94;;;8.47;79.51
12973;BME280;6551;51.056;9.466;2023-12-14T10:56:48;97523.13;;;8.52;78.65
12973;BME280;6551;51.056;9.466;2023-12-14T10:59:17;97531.06;;;8.59;78.44
12973;BME280;6551;51.056;9.466;2023-12-14T11:01:43;97532.75;;;8.47;77.89
12973;BME280;6551;51.056;9.466;2023-12-14T11:04:10;97543.72;;;8.50;77.49
12973;BME280;6551;51.056;9.466;2023-12-14T11:06:40;97538.06;;;8.40;77.37
12973;BME280;6551;51.056;9.466;2023-12-14T11:09:08;97550.91;;;8.37;77.40
12973;BME280;6551;51.056;9.466;2023-12-14T11:11:55;97556.03;;;8.32;77.81
12973;BME280;6551;51.056;9.466;2023-12-14T11:14:24;97550.94;;;8.10;77.64
12973;BME280;6551;51.056;9.466;2023-12-14T11:17:01;97556.44;;;8.15;77.91
12973;BME280;6551;51.056;9.466;2023-12-14T11:19:30;97561.94;;;8.01;77.47
12973;BME280;6551;51.056;9.466;2023-12-14T11:24:37;97566.03;;;7.84;78.18
12973;BME280;6551;51.056;9.466;2023-12-14T11:27:08;97576.63;;;7.84;77.85
12973;BME280;6551;51.056;9.466;2023-12-14T11:29:37;97578.88;;;7.80;78.33
12973;BME280;6551;51.056;9.466;2023-12-14T11:32:03;97584.16;;;7.74;78.13
12973;BME280;6551;51.056;9.466;2023-12-14T11:34:30;97587.00;;;7.72;78.20
12973;BME280;6551;51.056;9.466;2023-12-14T11:36:56;97593.53;;;7.70;78.21
12973;BME280;6551;51.056;9.466;2023-12-14T11:39:22;97595.56;;;7.61;78.19
12973;BME280;6551;51.056;9.466;2023-12-14T11:42:04;97601.50;;;7.76;78.36
12973;BME280;6551;51.056;9.466;2023-12-14T11:44:32;97605.97;;;7.76;78.78
12973;BME280;6551;51.056;9.466;2023-12-14T11:46:58;97607.00;;;7.81;78.57
12973;BME280;6551;51.056;9.466;2023-12-14T11:49:27;97608.22;;;7.79;78.24
12973;BME280;6551;51.056;9.466;2023-12-14T11:51:55;97607.41;;;7.78;77.85
12973;BME280;6551;51.056;9.466;2023-12-14T11:54:21;97605.34;;;7.67;77.64
12973;BME280;6551;51.056;9.466;2023-12-14T11:56:50;97603.75;;;7.66;78.28
12973;BME280;6551;51.056;9.466;2023-12-14T11:59:17;97602.31;;;7.70;78.28
12973;BME280;6551;51.056;9.466;2023-12-14T12:01:59;97607.81;;;7.75;78.16
12973;BME280;6551;51.056;9.466;2023-12-14T12:04:25;97605.56;;;7.79;78.11
12973;BME280;6551;51.056;9.466;2023-12-14T12:07:05;97613.53;;;7.85;78.27
12973;BME280;6551;51.056;9.466;2023-12-14T12:09:43;97613.31;;;7.87;78.93
12973;BME280;6551;51.056;9.466;2023-12-14T12:12:11;97612.72;;;7.85;78.34
12973;BME280;6551;51.056;9.466;2023-12-14T12:14:39;97616.38;;;7.84;78.26
12973;BME280;6551;51.056;9.466;2023-12-14T12:17:06;97623.72;;;7.82;78.02
12973;BME280;6551;51.056;9.466;2023-12-14T12:19:35;97628.41;;;7.73;78.09
12973;BME280;6551;51.056;9.466;2023-12-14T12:22:02;97624.75;;;7.74;78.23
12973;BME280;6551;51.056;9.466;2023-12-14T12:24:28;97630.22;;;7.73;78.22
12973;BME280;6551;51.056;9.466;2023-12-14T12:26:55;97629.00;;;7.62;78.41
12973;BME280;6551;51.056;9.466;2023-12-14T12:29:22;97627.56;;;7.59;78.42
12973;BME280;6551;51.056;9.466;2023-12-14T12:31:47;97636.50;;;7.58;78.51
12973;BME280;6551;51.056;9.466;2023-12-14T12:34:14;97634.50;;;7.60;78.56
12973;BME280;6551;51.056;9.466;2023-12-14T12:36:39;97645.09;;;7.60;78.88
12973;BME280;6551;51.056;9.466;2023-12-14T12:39:05;97646.72;;;7.55;78.25
12973;BME280;6551;51.056;9.466;2023-12-14T12:41:32;97649.56;;;7.53;78.71
12973;BME280;6551;51.056;9.466;2023-12-14T12:43:59;97662.19;;;7.51;77.85
12973;BME280;6551;51.056;9.466;2023-12-14T12:46:32;97653.84;;;7.54;78.37
12973;BME280;6551;51.056;9.466;2023-12-14T12:48:58;97654.25;;;7.51;77.78
12973;BME280;6551;51.056;9.466;2023-12-14T12:51:24;97658.94;;;7.49;77.89
12973;BME280;6551;51.056;9.466;2023-12-14T12:53:52;97665.66;;;7.58;78.33
12973;BME280;6551;51.056;9.466;2023-12-14T12:56:18;97657.09;;;7.56;78.31
12973;BME280;6551;51.056;9.466;2023-12-14T12:58:44;97663.97;;;7.44;77.50
12973;BME280;6551;51.056;9.466;2023-12-14T13:01:10;97662.97;;;7.45;78.23
12973;BME280;6551;51.056;9.466;2023-12-14T13:03:35;97661.53;;;7.43;77.62
12973;BME280;6551;51.056;9.466;2023-12-14T13:06:01;97665.19;;;7.42;78.12
12973;BME280;6551;51.056;9.466;2023-12-14T13:08:28;97666.25;;;7.41;78.27
12973;BME280;6551;51.056;9.466;2023-12-14T13:10:54;97672.31;;;7.41;77.80
12973;BME280;6551;51.056;9.466;2023-12-14T13:13:20;97672.16;;;7.43;78.21
12973;BME280;6551;51.056;9.466;2023-12-14T13:15:46;97676.44;;;7.44;78.08
12973;BME280;6551;51.056;9.466;2023-12-14T13:18:11;97682.13;;;7.41;77.71
12973;BME280;6551;51.056;9.466;2023-12-14T13:20:38;97680.25;;;7.35;77.08
12973;BME280;6551;51.056;9.466;2023-12-14T13:23:04;97692.47;;;7.36;76.77
12973;BME280;6551;51.056;9.466;2023-12-14T13:25:29;97691.47;;;7.37;76.95